createdAt,value
2023-01-20T06:17:09.531Z,0.373
2023-01-20T06:27:46.798Z,0.747
2023-01-20T06:34:03.245Z,1.867
2023-01-20T06:37:47.722Z,3.361
2023-01-20T06:40:30.967Z,4.482
2023-01-20T06:43:11.974Z,7.47
2023-01-20T06:46:31.051Z,12.325
2023-01-20T06:53:17.417Z,33.988
2023-01-20T06:56:56.881Z,53.784
2023-01-20T07:00:10.779Z,76.941
2023-01-20T07:02:43.818Z,98.604
2023-01-20T07:06:02.745Z,131.472
2023-01-20T07:08:40.934Z,167.328
2023-01-20T07:11:19.121Z,206.172
2023-01-20T07:13:57.332Z,250.992
2023-01-20T07:16:55.888Z,328.68
2023-01-20T07:21:10.935Z,484.056
2023-01-20T07:23:43.933Z,594.612
2023-01-20T07:26:37.352Z,735.048
2023-01-20T07:33:19.235Z,1111.536
2023-01-20T07:38:19.390Z,1368.504
2023-01-20T07:41:28.168Z,1488.024
2023-01-20T07:46:42.874Z,1589.616
2023-01-20T07:51:42.997Z,1828.656
2023-01-20T07:55:37.691Z,2007.936
2023-01-20T07:58:51.556Z,1960.128
2023-01-20T08:02:36.046Z,2127.456
2023-01-20T08:05:19.312Z,2211.12
2023-01-20T08:11:40.726Z,2569.68
2023-01-20T08:14:18.937Z,2880.432
2023-01-20T08:18:03.370Z,3179.232
2023-01-20T08:21:06.990Z,2904.336
2023-01-20T08:23:55.365Z,2832.624
2023-01-20T08:28:20.567Z,2820.672
2023-01-20T08:30:58.801Z,2952.144
2023-01-20T08:35:23.891Z,3298.752
2023-01-20T08:39:59.346Z,3155.328
2023-01-20T08:45:14.638Z,2796.768
2023-01-20T08:49:14.275Z,3011.904
2023-01-20T08:54:15.224Z,3227.04
2023-01-20T08:57:59.589Z,3705.12
2023-01-20T09:02:59.665Z,3944.16
2023-01-20T09:05:42.941Z,4422.24
2023-01-20T09:08:46.685Z,4565.664
2023-01-20T09:11:29.884Z,4470.048
2023-01-20T09:14:13.064Z,4350.528
2023-01-20T09:17:52.369Z,4063.68
2023-01-20T09:20:45.755Z,3752.928
2023-01-20T09:26:34.585Z,4493.952
2023-01-20T09:29:05.665Z,5330.592
2023-01-20T09:31:54.243Z,6693.12
2023-01-20T09:36:49.791Z,8366.4
2023-01-20T09:40:54.595Z,8127.36
2023-01-20T09:43:42.999Z,7697.088
2023-01-20T09:50:05.530Z,7697.088
2023-01-20T09:54:00.213Z,7266.816
2023-01-20T09:57:08.922Z,6549.696
2023-01-20T10:02:24.030Z,6454.08
2023-01-20T10:05:12.503Z,7362.432
2023-01-20T10:07:55.656Z,7983.936
2023-01-20T10:10:28.705Z,8366.4
2023-01-20T10:13:52.709Z,9226.944
2023-01-20T10:19:27.544Z,9657.216
2023-01-20T10:23:40.501Z,8987.904
2023-01-20T10:26:23.751Z,9131.328
2023-01-20T10:29:47.800Z,9657.216
2023-01-20T10:33:32.234Z,10565.568
2023-01-20T10:37:21.744Z,10135.296
2023-01-20T10:40:05.064Z,9179.136
2023-01-20T10:43:08.693Z,8222.976
2023-01-20T10:45:57.151Z,8127.36
2023-01-20T10:48:40.337Z,7649.28
2023-01-20T10:51:49.096Z,6979.968
2023-01-20T10:54:22.253Z,8844.48
2023-01-20T10:57:05.463Z,9561.6
2023-01-20T10:59:58.881Z,8940.096
2023-01-20T11:05:26.079Z,8796.672
2023-01-20T11:10:38.985Z,6262.848
2023-01-20T11:13:17.105Z,6597.504
2023-01-20T11:17:41.820Z,8748.864
2023-01-20T11:20:19.904Z,10422.144
2023-01-20T11:25:10.658Z,12812.544
2023-01-20T11:28:36.724Z,14533.632
2023-01-20T11:32:58.639Z,13577.472
2023-01-20T11:37:58.656Z,12143.232
2023-01-20T11:42:13.760Z,12621.312
2023-01-20T11:46:56.448Z,15394.176
2023-01-20T11:53:24.625Z,18167.04
2023-01-20T11:56:43.616Z,19027.584
2023-01-20T12:01:49.665Z,18262.656
2023-01-20T12:08:38.261Z,14820.48
2023-01-20T12:13:13.728Z,14438.016
2023-01-20T12:16:07.316Z,13959.936
2023-01-20T12:18:57.016Z,13577.472
2023-01-20T12:21:43.824Z,13768.704
2023-01-20T12:28:31.920Z,12430.08
2023-01-20T12:31:50.931Z,11760.768
2023-01-20T12:34:59.626Z,12430.08
2023-01-20T12:41:16.137Z,13099.392
2023-01-20T12:45:36.436Z,12716.928
2023-01-20T12:48:19.638Z,12430.08
2023-01-20T12:51:49.595Z,9896.256
2023-01-20T12:54:48.552Z,9083.52
2023-01-20T12:58:58.278Z,9035.712
2023-01-20T13:04:50.188Z,9896.256
2023-01-20T13:07:43.571Z,9657.216
2023-01-20T13:11:02.488Z,8079.552
2023-01-20T13:14:11.221Z,6071.616
2023-01-20T13:16:49.458Z,5378.4
2023-01-20T13:22:31.201Z,6501.888
2023-01-20T13:25:14.749Z,6836.544
2023-01-20T13:28:18.061Z,7505.856
2023-01-20T13:30:56.327Z,8031.744
2023-01-20T13:33:29.320Z,8940.096
2023-01-20T13:36:43.217Z,8892.288
2023-01-20T13:39:16.243Z,8605.44
2023-01-20T13:42:09.692Z,8940.096
2023-01-20T13:45:13.885Z,9465.984
2023-01-20T13:48:06.845Z,9370.368
2023-01-20T13:50:55.185Z,9035.712
2023-01-20T13:55:46.000Z,8987.904
2023-01-20T13:58:54.751Z,9370.368
2023-01-20T14:01:53.296Z,9800.64
2023-01-20T14:05:22.468Z,9705.024
2023-01-20T14:09:17.086Z,9561.6
2023-01-20T14:12:10.636Z,10326.528
2023-01-20T14:14:43.621Z,10135.296
2023-01-20T14:18:02.589Z,9274.752
2023-01-20T14:20:56.109Z,8653.248
2023-01-20T14:23:39.352Z,8175.168
2023-01-20T14:26:48.042Z,7601.472
2023-01-20T14:30:12.117Z,7075.584
2023-01-20T14:33:41.254Z,6406.272
2023-01-20T14:36:44.921Z,5952.096
2023-01-20T14:39:33.342Z,5617.44
2023-01-20T14:42:26.821Z,5258.88
2023-01-20T14:46:41.888Z,4637.376
2023-01-20T14:49:20.006Z,4374.432
2023-01-20T14:52:18.542Z,4111.488
2023-01-20T14:55:17.077Z,3872.448
2023-01-20T14:58:51.385Z,3513.888
2023-01-20T15:01:39.796Z,3227.04
2023-01-20T15:05:34.431Z,2820.672
2023-01-20T15:09:00.755Z,2497.968
2023-01-20T15:12:02.075Z,2187.216
2023-01-20T15:14:55.516Z,1936.224
2023-01-20T15:19:00.335Z,1565.712
2023-01-20T15:24:25.742Z,1129.464
2023-01-20T15:29:25.877Z,854.568
2023-01-20T15:35:06.146Z,546.804
2023-01-20T15:40:06.288Z,342.126
2023-01-20T15:46:32.699Z,162.846
2023-01-20T15:51:32.723Z,89.266
2023-01-20T15:56:32.796Z,45.94
2023-01-20T16:01:32.942Z,22.41
2023-01-20T16:06:48.315Z,9.711
2023-01-20T16:11:48.329Z,4.482
2023-01-20T16:18:14.661Z,1.494
2023-01-20T16:23:14.752Z,0.373
2023-01-20T16:33:14.955Z,0
